Aérodrome :
LOGIN :

S'inscrire | Disclaimer

   EN    FR    IT 

 










Légende :    VFR   VFR Marginal   IFR   IFR Intensif   IFR Très Intensif
Visi : 
Plafond : 
>= 8 km
>= 3000ft
5 à 8 km
1000 à 3000 ft
1500m à 5 km
500 à 1000 ft
800 à 1500m
200 à 500 ft
< 800m
< 200 ft
Symboles :   Orages  Brouillard  Fortes neiges  Fortes précipitations  Vent > 20 kt
SIGMETs :   Divers  Orages  Givrage  Turbulence  Onde Orograph.  Cendres Volcan.






- Altitude de l'aérodrome : 123 ft
- Code IATA : BLQ


LIPE - Bologna Guglielmo Marconi

DERNIER METAR :
  • 282220Z AUTO 09007KT 9999 -RA BKN069/// BKN100/// 18/09 Q1018

METARs EXPIRÉS :
  • 282150Z AUTO 10007KT 9999 BKN110/// 18/09 Q1019
  • 282120Z AUTO 10007KT 9999 FEW170/// 18/09 Q1019
  • 282050Z 11008KT CAVOK 18/09 Q1019
  • 282020Z 10007KT CAVOK 19/09 Q1019
  • 281950Z 11007KT CAVOK 19/09 Q1019

TAF TAF LIPE
Valide du 28 à 18h jusqu'au 29 à 18h UTC


281700Z 2818/2918 10008KT 9999 SCT040
TEMPO 2822/2908 4000 TSRA



MET'MAP, la Météo Aéronautique d'un coup d'oeil ! - Copyright ORBIFLY Décembre 2007 - Disclaimer

ORBIFLY MET'MAP TEAM :

Programmation & Développement : Alexandra Zaïnal
Sur une idée originale de : Baudouin d'Aumeries
Assistance à la programmation : Marc-Olivier Méhu
Soutien technique & logistique : Manuel Goepfert

Contact : metmap@orbifly.com




SOURCES & CREDITS :

   NOAA